< Typhoon 199106 1991 Season Typhoon 199108 >
Typhoon 199107 (AMY)
General InformationTrack Information on Google MapsDetailed Wind InformationList of All Images || Disaster Info.ResourceGoogle EarthGE AnimationAtom FeedGeoJSON
Detalied Best Track (Time Zone = UTC)
Year Month Day Hour Lat. Long. Pressure (hPa) Wind (kt) Class Image Chart
1991 7 14 12 12.0 140.0 1008 0 2 Image Chart
1991 7 14 18 12.5 138.4 1008 0 2 Image Chart
1991 7 15 00 13.0 137.5 1008 0 2 Image Chart
1991 7 15 06 14.0 136.0 1006 0 2 Image Chart
1991 7 15 12 14.5 135.5 1006 0 2 Image Chart
1991 7 15 18 14.8 134.8 1004 0 2 Image Chart
1991 7 16 00 15.0 134.0 1002 0 2 Image Chart
1991 7 16 06 16.0 133.4 996 35 3 Image Chart
1991 7 16 12 17.2 132.2 990 40 3 Image Chart
1991 7 16 18 17.6 130.8 985 50 4 Image Chart
1991 7 17 00 17.6 129.7 980 55 4 Image Chart
1991 7 17 06 17.8 128.5 975 60 4 Image Chart
1991 7 17 12 18.3 127.4 970 65 5 Image Chart
1991 7 17 18 18.6 126.4 955 75 5 Image Chart
1991 7 18 00 19.4 125.2 940 85 5 Image Chart
1991 7 18 06 19.8 123.9 940 85 5 Image Chart
1991 7 18 12 20.7 122.4 935 90 5 Image Chart
1991 7 18 18 21.5 120.8 930 95 5 Image Chart
1991 7 19 00 22.6 118.7 940 90 5 Image Chart
1991 7 19 06 23.1 117.3 950 80 5 Image Chart
1991 7 19 12 23.5 115.7 970 60 4 Image Chart
1991 7 19 18 24.1 114.5 985 45 3 Image Chart
1991 7 20 00 25.1 113.2 996 40 3 Image Chart
1991 7 20 06 27.0 111.0 998 0 2 Image Chart
1991 7 20 12 28.0 110.0 998 0 2 Image Chart
1991 7 20 18 29.0 109.2 998 0 2 Image Chart
Japan Meteorological Agency Best Track Data | Correction Date : 1992-01-04
< Typhoon 199106 1991 Season Typhoon 199108 >

Help